sensor_id;sensor_type;location;lat;lon;timestamp;P1;durP1;ratioP1;P2;durP2;ratioP2
51806;SDS011;37865;51.304;9.536;2023-06-04T00:02:00;5.82;;;2.50;;
51806;SDS011;37865;51.304;9.536;2023-06-04T00:04:26;4.25;;;2.33;;
51806;SDS011;37865;51.304;9.536;2023-06-04T00:06:51;3.10;;;2.78;;
51806;SDS011;37865;51.304;9.536;2023-06-04T00:09:16;4.35;;;2.65;;
51806;SDS011;37865;51.304;9.536;2023-06-04T00:11:42;7.45;;;2.65;;
51806;SDS011;37865;51.304;9.536;2023-06-04T00:14:07;7.20;;;3.58;;
51806;SDS011;37865;51.304;9.536;2023-06-04T00:16:32;3.58;;;2.75;;
51806;SDS011;37865;51.304;9.536;2023-06-04T00:19:00;4.55;;;2.35;;
51806;SDS011;37865;51.304;9.536;2023-06-04T00:21:26;4.32;;;2.75;;
51806;SDS011;37865;51.304;9.536;2023-06-04T00:23:51;7.88;;;3.53;;
51806;SDS011;37865;51.304;9.536;2023-06-04T00:26:16;7.90;;;3.72;;
51806;SDS011;37865;51.304;9.536;2023-06-04T00:28:42;7.82;;;4.10;;
51806;SDS011;37865;51.304;9.536;2023-06-04T00:31:07;8.30;;;3.50;;
51806;SDS011;37865;51.304;9.536;2023-06-04T00:33:32;11.80;;;3.75;;
51806;SDS011;37865;51.304;9.536;2023-06-04T00:36:00;5.47;;;3.15;;
51806;SDS011;37865;51.304;9.536;2023-06-04T00:38:25;5.93;;;3.30;;
51806;SDS011;37865;51.304;9.536;2023-06-04T00:40:50;6.15;;;3.13;;
51806;SDS011;37865;51.304;9.536;2023-06-04T00:43:16;7.43;;;2.75;;
51806;SDS011;37865;51.304;9.536;2023-06-04T00:45:41;4.25;;;2.60;;
51806;SDS011;37865;51.304;9.536;2023-06-04T00:48:07;5.38;;;2.78;;
51806;SDS011;37865;51.304;9.536;2023-06-04T00:50:32;4.40;;;2.55;;
51806;SDS011;37865;51.304;9.536;2023-06-04T00:52:58;5.65;;;4.20;;
51806;SDS011;37865;51.304;9.536;2023-06-04T00:55:23;5.65;;;2.83;;
51806;SDS011;37865;51.304;9.536;2023-06-04T00:57:49;5.40;;;3.92;;
51806;SDS011;37865;51.304;9.536;2023-06-04T01:00:14;2.65;;;2.08;;
51806;SDS011;37865;51.304;9.536;2023-06-04T01:02:39;10.68;;;4.35;;
51806;SDS011;37865;51.304;9.536;2023-06-04T01:05:12;7.22;;;3.67;;
51806;SDS011;37865;51.304;9.536;2023-06-04T01:07:45;5.00;;;4.15;;
51806;SDS011;37865;51.304;9.536;2023-06-04T01:10:12;7.22;;;3.83;;
51806;SDS011;37865;51.304;9.536;2023-06-04T01:12:42;3.70;;;2.45;;
51806;SDS011;37865;51.304;9.536;2023-06-04T01:15:08;3.85;;;2.40;;
51806;SDS011;37865;51.304;9.536;2023-06-04T01:17:41;9.63;;;3.90;;
51806;SDS011;37865;51.304;9.536;2023-06-04T01:25:32;3.03;;;1.73;;
51806;SDS011;37865;51.304;9.536;2023-06-04T01:27:59;5.95;;;3.35;;
51806;SDS011;37865;51.304;9.536;2023-06-04T01:30:35;4.60;;;2.72;;
51806;SDS011;37865;51.304;9.536;2023-06-04T01:33:08;7.30;;;3.78;;
51806;SDS011;37865;51.304;9.536;2023-06-04T01:35:36;5.45;;;1.92;;
51806;SDS011;37865;51.304;9.536;2023-06-04T01:38:02;10.13;;;3.75;;
51806;SDS011;37865;51.304;9.536;2023-06-04T01:40:27;2.38;;;2.08;;
51806;SDS011;37865;51.304;9.536;2023-06-04T01:42:53;3.10;;;1.90;;
51806;SDS011;37865;51.304;9.536;2023-06-04T01:45:20;5.65;;;3.63;;
51806;SDS011;37865;51.304;9.536;2023-06-04T01:47:46;4.63;;;3.08;;
51806;SDS011;37865;51.304;9.536;2023-06-04T01:50:12;6.18;;;3.78;;
51806;SDS011;37865;51.304;9.536;2023-06-04T01:52:37;7.78;;;2.60;;
51806;SDS011;37865;51.304;9.536;2023-06-04T01:55:04;6.57;;;4.03;;
51806;SDS011;37865;51.304;9.536;2023-06-04T01:57:32;10.75;;;3.55;;
51806;SDS011;37865;51.304;9.536;2023-06-04T01:59:58;5.97;;;2.90;;
51806;SDS011;37865;51.304;9.536;2023-06-04T02:02:23;7.43;;;3.67;;
51806;SDS011;37865;51.304;9.536;2023-06-04T02:04:48;6.75;;;1.92;;
51806;SDS011;37865;51.304;9.536;2023-06-04T02:07:16;22.60;;;4.15;;
51806;SDS011;37865;51.304;9.536;2023-06-04T02:09:45;5.90;;;4.07;;
51806;SDS011;37865;51.304;9.536;2023-06-04T02:12:11;7.35;;;3.10;;
51806;SDS011;37865;51.304;9.536;2023-06-04T02:14:37;5.35;;;3.55;;
51806;SDS011;37865;51.304;9.536;2023-06-04T02:17:03;6.53;;;3.20;;
51806;SDS011;37865;51.304;9.536;2023-06-04T02:19:29;3.50;;;1.55;;
51806;SDS011;37865;51.304;9.536;2023-06-04T02:21:55;12.18;;;4.43;;
51806;SDS011;37865;51.304;9.536;2023-06-04T02:24:21;9.32;;;3.53;;
51806;SDS011;37865;51.304;9.536;2023-06-04T02:26:46;9.32;;;3.92;;
51806;SDS011;37865;51.304;9.536;2023-06-04T02:29:11;2.40;;;1.92;;
51806;SDS011;37865;51.304;9.536;2023-06-04T02:31:37;4.93;;;2.85;;
51806;SDS011;37865;51.304;9.536;2023-06-04T02:34:02;3.03;;;2.10;;
51806;SDS011;37865;51.304;9.536;2023-06-04T02:36:28;2.42;;;1.98;;
51806;SDS011;37865;51.304;9.536;2023-06-04T02:38:54;4.28;;;3.45;;
51806;SDS011;37865;51.304;9.536;2023-06-04T02:41:20;4.03;;;2.92;;
51806;SDS011;37865;51.304;9.536;2023-06-04T02:43:46;5.75;;;3.00;;
51806;SDS011;37865;51.304;9.536;2023-06-04T02:46:11;4.82;;;3.22;;
51806;SDS011;37865;51.304;9.536;2023-06-04T02:48:36;5.68;;;1.92;;
51806;SDS011;37865;51.304;9.536;2023-06-04T02:51:02;11.68;;;3.83;;
51806;SDS011;37865;51.304;9.536;2023-06-04T02:53:27;3.63;;;2.25;;
51806;SDS011;37865;51.304;9.536;2023-06-04T02:55:52;2.40;;;2.20;;
51806;SDS011;37865;51.304;9.536;2023-06-04T02:58:18;6.15;;;2.00;;
51806;SDS011;37865;51.304;9.536;2023-06-04T03:00:44;4.97;;;2.45;;
51806;SDS011;37865;51.304;9.536;2023-06-04T03:03:10;6.13;;;2.95;;
51806;SDS011;37865;51.304;9.536;2023-06-04T03:05:35;5.43;;;4.07;;
51806;SDS011;37865;51.304;9.536;2023-06-04T03:08:02;4.70;;;3.40;;
51806;SDS011;37865;51.304;9.536;2023-06-04T03:10:28;5.00;;;2.08;;
51806;SDS011;37865;51.304;9.536;2023-06-04T03:12:53;3.97;;;1.83;;
51806;SDS011;37865;51.304;9.536;2023-06-04T03:15:19;6.47;;;3.92;;
51806;SDS011;37865;51.304;9.536;2023-06-04T03:17:45;3.83;;;2.83;;
51806;SDS011;37865;51.304;9.536;2023-06-04T03:20:10;7.95;;;4.78;;
51806;SDS011;37865;51.304;9.536;2023-06-04T03:22:36;3.53;;;2.15;;
51806;SDS011;37865;51.304;9.536;2023-06-04T03:25:01;12.23;;;3.25;;
51806;SDS011;37865;51.304;9.536;2023-06-04T03:27:28;8.55;;;3.08;;
51806;SDS011;37865;51.304;9.536;2023-06-04T03:29:55;7.18;;;2.55;;
51806;SDS011;37865;51.304;9.536;2023-06-04T03:32:20;6.93;;;3.47;;
51806;SDS011;37865;51.304;9.536;2023-06-04T03:34:45;2.63;;;1.95;;
51806;SDS011;37865;51.304;9.536;2023-06-04T03:37:10;8.57;;;3.40;;
51806;SDS011;37865;51.304;9.536;2023-06-04T03:39:36;3.35;;;1.95;;
51806;SDS011;37865;51.304;9.536;2023-06-04T03:42:01;4.47;;;3.55;;
51806;SDS011;37865;51.304;9.536;2023-06-04T03:44:26;3.63;;;2.38;;
51806;SDS011;37865;51.304;9.536;2023-06-04T03:46:52;11.32;;;3.63;;
51806;SDS011;37865;51.304;9.536;2023-06-04T03:49:17;4.57;;;3.85;;
51806;SDS011;37865;51.304;9.536;2023-06-04T03:51:43;2.35;;;1.90;;
51806;SDS011;37865;51.304;9.536;2023-06-04T03:54:08;7.88;;;3.60;;
51806;SDS011;37865;51.304;9.536;2023-06-04T03:56:35;8.65;;;2.38;;
51806;SDS011;37865;51.304;9.536;2023-06-04T03:59:00;9.63;;;3.55;;
51806;SDS011;37865;51.304;9.536;2023-06-04T04:01:25;3.47;;;3.17;;
51806;SDS011;37865;51.304;9.536;2023-06-04T04:03:51;4.47;;;2.33;;
51806;SDS011;37865;51.304;9.536;2023-06-04T04:06:18;6.80;;;2.83;;
51806;SDS011;37865;51.304;9.536;2023-06-04T04:08:44;8.38;;;3.00;;
51806;SDS011;37865;51.304;9.536;2023-06-04T04:11:10;5.60;;;3.58;;
51806;SDS011;37865;51.304;9.536;2023-06-04T04:13:38;3.58;;;3.20;;
51806;SDS011;37865;51.304;9.536;2023-06-04T04:16:03;5.70;;;3.40;;
51806;SDS011;37865;51.304;9.536;2023-06-04T04:18:32;3.10;;;2.13;;
51806;SDS011;37865;51.304;9.536;2023-06-04T04:20:58;4.20;;;2.53;;
51806;SDS011;37865;51.304;9.536;2023-06-04T04:23:23;5.25;;;3.60;;
51806;SDS011;37865;51.304;9.536;2023-06-04T04:25:49;4.88;;;2.70;;
51806;SDS011;37865;51.304;9.536;2023-06-04T04:28:15;4.70;;;3.40;;
51806;SDS011;37865;51.304;9.536;2023-06-04T04:30:42;7.38;;;3.42;;
51806;SDS011;37865;51.304;9.536;2023-06-04T04:33:09;8.00;;;4.53;;
51806;SDS011;37865;51.304;9.536;2023-06-04T04:35:35;3.53;;;2.70;;
51806;SDS011;37865;51.304;9.536;2023-06-04T04:38:01;10.57;;;3.78;;
51806;SDS011;37865;51.304;9.536;2023-06-04T04:40:30;3.92;;;2.88;;
51806;SDS011;37865;51.304;9.536;2023-06-04T04:42:55;6.50;;;3.88;;
51806;SDS011;37865;51.304;9.536;2023-06-04T04:45:21;1.92;;;1.65;;
51806;SDS011;37865;51.304;9.536;2023-06-04T04:47:46;4.78;;;2.47;;
51806;SDS011;37865;51.304;9.536;2023-06-04T04:50:12;3.88;;;2.35;;
51806;SDS011;37865;51.304;9.536;2023-06-04T04:52:38;9.63;;;3.22;;
51806;SDS011;37865;51.304;9.536;2023-06-04T04:55:03;5.32;;;2.38;;
51806;SDS011;37865;51.304;9.536;2023-06-04T04:57:29;4.97;;;3.03;;
51806;SDS011;37865;51.304;9.536;2023-06-04T04:59:54;3.03;;;2.38;;
51806;SDS011;37865;51.304;9.536;2023-06-04T05:02:20;5.05;;;2.90;;
51806;SDS011;37865;51.304;9.536;2023-06-04T05:04:45;7.07;;;2.50;;
51806;SDS011;37865;51.304;9.536;2023-06-04T05:07:10;3.25;;;1.80;;
51806;SDS011;37865;51.304;9.536;2023-06-04T05:09:36;4.32;;;3.35;;
51806;SDS011;37865;51.304;9.536;2023-06-04T05:12:01;3.35;;;2.88;;
51806;SDS011;37865;51.304;9.536;2023-06-04T05:14:27;5.82;;;3.28;;
51806;SDS011;37865;51.304;9.536;2023-06-04T05:16:53;5.90;;;3.13;;
51806;SDS011;37865;51.304;9.536;2023-06-04T05:19:21;3.90;;;2.83;;
51806;SDS011;37865;51.304;9.536;2023-06-04T05:21:47;3.30;;;1.95;;
51806;SDS011;37865;51.304;9.536;2023-06-04T05:24:14;9.23;;;3.22;;
51806;SDS011;37865;51.304;9.536;2023-06-04T05:26:39;6.70;;;3.08;;
51806;SDS011;37865;51.304;9.536;2023-06-04T05:29:05;9.90;;;1.92;;
51806;SDS011;37865;51.304;9.536;2023-06-04T05:31:30;3.65;;;2.63;;
51806;SDS011;37865;51.304;9.536;2023-06-04T05:33:58;6.45;;;2.67;;
51806;SDS011;37865;51.304;9.536;2023-06-04T05:36:26;2.85;;;1.42;;
51806;SDS011;37865;51.304;9.536;2023-06-04T05:38:52;4.90;;;2.60;;
51806;SDS011;37865;51.304;9.536;2023-06-04T05:41:22;4.13;;;2.05;;
51806;SDS011;37865;51.304;9.536;2023-06-04T05:43:50;2.75;;;1.92;;
51806;SDS011;37865;51.304;9.536;2023-06-04T05:46:15;3.85;;;2.35;;
51806;SDS011;37865;51.304;9.536;2023-06-04T05:48:40;3.00;;;1.80;;
51806;SDS011;37865;51.304;9.536;2023-06-04T05:51:06;4.80;;;2.15;;
51806;SDS011;37865;51.304;9.536;2023-06-04T05:53:31;4.75;;;3.03;;
51806;SDS011;37865;51.304;9.536;2023-06-04T05:55:57;5.20;;;1.50;;
51806;SDS011;37865;51.304;9.536;2023-06-04T05:58:22;5.07;;;2.47;;
51806;SDS011;37865;51.304;9.536;2023-06-04T06:00:48;3.20;;;2.10;;
51806;SDS011;37865;51.304;9.536;2023-06-04T06:03:15;3.38;;;2.40;;
51806;SDS011;37865;51.304;9.536;2023-06-04T06:05:41;1.88;;;1.42;;
51806;SDS011;37865;51.304;9.536;2023-06-04T06:08:07;5.47;;;1.65;;
51806;SDS011;37865;51.304;9.536;2023-06-04T06:10:32;2.55;;;1.90;;
51806;SDS011;37865;51.304;9.536;2023-06-04T06:12:58;6.47;;;2.30;;
51806;SDS011;37865;51.304;9.536;2023-06-04T06:15:25;3.80;;;1.83;;
51806;SDS011;37865;51.304;9.536;2023-06-04T06:17:51;3.03;;;2.30;;
51806;SDS011;37865;51.304;9.536;2023-06-04T06:20:17;3.80;;;2.22;;
51806;SDS011;37865;51.304;9.536;2023-06-04T06:22:43;2.60;;;1.67;;
51806;SDS011;37865;51.304;9.536;2023-06-04T06:25:08;11.40;;;5.00;;
51806;SDS011;37865;51.304;9.536;2023-06-04T06:27:34;6.15;;;2.78;;
51806;SDS011;37865;51.304;9.536;2023-06-04T06:30:00;2.55;;;1.90;;
51806;SDS011;37865;51.304;9.536;2023-06-04T06:32:25;3.25;;;1.52;;
51806;SDS011;37865;51.304;9.536;2023-06-04T06:34:52;6.85;;;2.33;;
51806;SDS011;37865;51.304;9.536;2023-06-04T06:37:17;8.07;;;2.15;;
51806;SDS011;37865;51.304;9.536;2023-06-04T06:39:43;3.63;;;2.03;;
51806;SDS011;37865;51.304;9.536;2023-06-04T06:42:08;3.88;;;2.63;;
51806;SDS011;37865;51.304;9.536;2023-06-04T06:44:33;7.80;;;2.60;;
51806;SDS011;37865;51.304;9.536;2023-06-04T06:46:59;8.27;;;2.38;;
51806;SDS011;37865;51.304;9.536;2023-06-04T06:49:24;11.15;;;4.40;;
51806;SDS011;37865;51.304;9.536;2023-06-04T06:51:49;4.93;;;2.92;;
51806;SDS011;37865;51.304;9.536;2023-06-04T06:54:15;4.13;;;2.03;;
51806;SDS011;37865;51.304;9.536;2023-06-04T06:56:46;2.15;;;1.90;;
51806;SDS011;37865;51.304;9.536;2023-06-04T06:59:13;11.35;;;2.85;;
51806;SDS011;37865;51.304;9.536;2023-06-04T07:01:38;2.67;;;1.67;;
51806;SDS011;37865;51.304;9.536;2023-06-04T07:04:04;2.45;;;2.20;;
51806;SDS011;37865;51.304;9.536;2023-06-04T07:06:29;3.20;;;1.98;;
51806;SDS011;37865;51.304;9.536;2023-06-04T07:08:54;8.00;;;2.33;;
51806;SDS011;37865;51.304;9.536;2023-06-04T07:11:20;10.25;;;2.38;;
51806;SDS011;37865;51.304;9.536;2023-06-04T07:13:47;2.97;;;2.30;;
51806;SDS011;37865;51.304;9.536;2023-06-04T07:16:12;3.40;;;2.17;;
51806;SDS011;37865;51.304;9.536;2023-06-04T07:18:37;5.80;;;1.98;;
51806;SDS011;37865;51.304;9.536;2023-06-04T07:21:03;2.17;;;1.77;;
51806;SDS011;37865;51.304;9.536;2023-06-04T07:23:28;8.88;;;2.47;;
51806;SDS011;37865;51.304;9.536;2023-06-04T07:25:54;2.75;;;1.88;;
51806;SDS011;37865;51.304;9.536;2023-06-04T07:28:19;6.15;;;2.85;;
51806;SDS011;37865;51.304;9.536;2023-06-04T07:30:45;2.92;;;2.38;;
51806;SDS011;37865;51.304;9.536;2023-06-04T07:33:11;4.40;;;2.40;;
51806;SDS011;37865;51.304;9.536;2023-06-04T07:35:36;4.65;;;2.95;;
51806;SDS011;37865;51.304;9.536;2023-06-04T07:38:02;3.33;;;2.63;;
51806;SDS011;37865;51.304;9.536;2023-06-04T07:40:27;5.07;;;2.17;;
51806;SDS011;37865;51.304;9.536;2023-06-04T07:42:52;4.25;;;2.45;;
51806;SDS011;37865;51.304;9.536;2023-06-04T07:45:18;3.20;;;2.40;;
51806;SDS011;37865;51.304;9.536;2023-06-04T07:47:43;3.50;;;2.10;;
51806;SDS011;37865;51.304;9.536;2023-06-04T07:50:09;4.55;;;2.05;;
51806;SDS011;37865;51.304;9.536;2023-06-04T07:52:35;8.77;;;2.35;;
51806;SDS011;37865;51.304;9.536;2023-06-04T07:55:00;4.50;;;1.70;;
51806;SDS011;37865;51.304;9.536;2023-06-04T07:57:26;2.28;;;1.80;;
51806;SDS011;37865;51.304;9.536;2023-06-04T07:59:51;7.50;;;3.08;;
51806;SDS011;37865;51.304;9.536;2023-06-04T08:02:17;3.45;;;1.85;;
51806;SDS011;37865;51.304;9.536;2023-06-04T08:04:42;4.22;;;1.55;;
51806;SDS011;37865;51.304;9.536;2023-06-04T08:07:08;5.95;;;1.67;;
51806;SDS011;37865;51.304;9.536;2023-06-04T08:09:33;6.18;;;1.95;;
51806;SDS011;37865;51.304;9.536;2023-06-04T08:11:59;3.35;;;2.00;;
51806;SDS011;37865;51.304;9.536;2023-06-04T08:14:24;4.90;;;1.92;;
51806;SDS011;37865;51.304;9.536;2023-06-04T08:16:52;3.80;;;1.98;;
51806;SDS011;37865;51.304;9.536;2023-06-04T08:19:18;4.45;;;1.83;;
51806;SDS011;37865;51.304;9.536;2023-06-04T08:21:43;12.55;;;3.03;;
51806;SDS011;37865;51.304;9.536;2023-06-04T08:24:10;5.20;;;2.95;;
51806;SDS011;37865;51.304;9.536;2023-06-04T08:26:35;2.85;;;1.85;;
51806;SDS011;37865;51.304;9.536;2023-06-04T08:29:02;2.83;;;1.88;;
51806;SDS011;37865;51.304;9.536;2023-06-04T08:31:29;6.25;;;1.70;;
51806;SDS011;37865;51.304;9.536;2023-06-04T08:33:54;1.90;;;1.35;;
51806;SDS011;37865;51.304;9.536;2023-06-04T08:36:19;7.28;;;1.92;;
51806;SDS011;37865;51.304;9.536;2023-06-04T08:38:45;3.85;;;2.83;;
51806;SDS011;37865;51.304;9.536;2023-06-04T08:41:29;3.83;;;2.15;;
51806;SDS011;37865;51.304;9.536;2023-06-04T08:43:59;1.38;;;1.27;;
51806;SDS011;37865;51.304;9.536;2023-06-04T08:46:27;3.42;;;2.50;;
51806;SDS011;37865;51.304;9.536;2023-06-04T08:48:54;5.78;;;2.38;;
51806;SDS011;37865;51.304;9.536;2023-06-04T08:51:24;6.28;;;2.15;;
51806;SDS011;37865;51.304;9.536;2023-06-04T08:53:50;4.28;;;2.80;;
51806;SDS011;37865;51.304;9.536;2023-06-04T08:56:19;2.58;;;2.20;;
51806;SDS011;37865;51.304;9.536;2023-06-04T08:58:45;7.80;;;2.83;;
51806;SDS011;37865;51.304;9.536;2023-06-04T09:01:11;6.78;;;3.35;;
51806;SDS011;37865;51.304;9.536;2023-06-04T09:03:39;9.68;;;8.68;;
51806;SDS011;37865;51.304;9.536;2023-06-04T09:06:05;9.38;;;6.63;;
51806;SDS011;37865;51.304;9.536;2023-06-04T09:08:31;4.72;;;4.13;;
51806;SDS011;37865;51.304;9.536;2023-06-04T09:11:05;5.10;;;4.30;;
51806;SDS011;37865;51.304;9.536;2023-06-04T09:13:35;7.72;;;4.18;;
51806;SDS011;37865;51.304;9.536;2023-06-04T09:16:01;4.75;;;3.22;;
51806;SDS011;37865;51.304;9.536;2023-06-04T09:18:28;6.05;;;3.50;;
51806;SDS011;37865;51.304;9.536;2023-06-04T09:23:34;3.42;;;3.13;;
51806;SDS011;37865;51.304;9.536;2023-06-04T09:26:09;2.30;;;2.10;;
51806;SDS011;37865;51.304;9.536;2023-06-04T09:28:42;6.47;;;3.10;;
51806;SDS011;37865;51.304;9.536;2023-06-04T09:31:15;2.42;;;2.22;;
51806;SDS011;37865;51.304;9.536;2023-06-04T09:33:41;1.75;;;1.63;;
51806;SDS011;37865;51.304;9.536;2023-06-04T09:36:08;7.97;;;2.65;;
51806;SDS011;37865;51.304;9.536;2023-06-04T09:38:34;4.93;;;3.25;;
51806;SDS011;37865;51.304;9.536;2023-06-04T09:41:00;3.30;;;2.90;;
51806;SDS011;37865;51.304;9.536;2023-06-04T09:43:26;4.13;;;2.20;;
51806;SDS011;37865;51.304;9.536;2023-06-04T09:45:51;5.80;;;3.20;;
51806;SDS011;37865;51.304;9.536;2023-06-04T09:48:21;2.30;;;2.10;;
51806;SDS011;37865;51.304;9.536;2023-06-04T09:50:46;3.55;;;2.40;;
51806;SDS011;37865;51.304;9.536;2023-06-04T09:53:19;3.25;;;2.40;;
51806;SDS011;37865;51.304;9.536;2023-06-04T09:55:57;1.98;;;1.88;;
51806;SDS011;37865;51.304;9.536;2023-06-04T09:58:24;15.65;;;2.83;;
51806;SDS011;37865;51.304;9.536;2023-06-04T10:00:51;4.30;;;2.55;;
51806;SDS011;37865;51.304;9.536;2023-06-04T10:03:18;5.82;;;3.85;;
51806;SDS011;37865;51.304;9.536;2023-06-04T10:05:50;3.67;;;2.92;;
51806;SDS011;37865;51.304;9.536;2023-06-04T10:08:18;3.78;;;2.42;;
51806;SDS011;37865;51.304;9.536;2023-06-04T10:10:46;5.82;;;2.55;;
51806;SDS011;37865;51.304;9.536;2023-06-04T10:13:16;4.60;;;2.38;;
51806;SDS011;37865;51.304;9.536;2023-06-04T10:15:43;2.10;;;1.90;;
51806;SDS011;37865;51.304;9.536;2023-06-04T10:18:10;3.13;;;1.92;;
51806;SDS011;37865;51.304;9.536;2023-06-04T10:20:36;6.70;;;2.10;;
51806;SDS011;37865;51.304;9.536;2023-06-04T10:23:02;6.10;;;2.05;;
51806;SDS011;37865;51.304;9.536;2023-06-04T10:25:29;2.47;;;1.80;;
51806;SDS011;37865;51.304;9.536;2023-06-04T10:27:55;6.40;;;2.28;;
51806;SDS011;37865;51.304;9.536;2023-06-04T10:30:21;5.53;;;2.20;;
51806;SDS011;37865;51.304;9.536;2023-06-04T10:32:47;4.03;;;1.92;;
51806;SDS011;37865;51.304;9.536;2023-06-04T10:35:12;7.38;;;2.05;;
51806;SDS011;37865;51.304;9.536;2023-06-04T10:37:39;4.38;;;2.17;;
51806;SDS011;37865;51.304;9.536;2023-06-04T10:40:05;2.22;;;1.60;;
51806;SDS011;37865;51.304;9.536;2023-06-04T10:42:40;6.78;;;1.75;;
51806;SDS011;37865;51.304;9.536;2023-06-04T10:45:08;4.05;;;1.98;;
51806;SDS011;37865;51.304;9.536;2023-06-04T10:47:34;2.30;;;2.10;;
51806;SDS011;37865;51.304;9.536;2023-06-04T10:50:12;4.05;;;2.08;;
51806;SDS011;37865;51.304;9.536;2023-06-04T10:52:50;2.83;;;2.17;;
51806;SDS011;37865;51.304;9.536;2023-06-04T10:55:16;1.95;;;1.75;;
51806;SDS011;37865;51.304;9.536;2023-06-04T10:57:50;5.28;;;2.15;;
51806;SDS011;37865;51.304;9.536;2023-06-04T11:00:22;4.15;;;2.17;;
51806;SDS011;37865;51.304;9.536;2023-06-04T11:02:59;3.60;;;2.65;;
51806;SDS011;37865;51.304;9.536;2023-06-04T11:08:26;4.43;;;3.10;;
51806;SDS011;37865;51.304;9.536;2023-06-04T11:10:55;6.53;;;5.00;;
51806;SDS011;37865;51.304;9.536;2023-06-04T11:13:24;2.75;;;2.05;;
51806;SDS011;37865;51.304;9.536;2023-06-04T11:15:53;6.22;;;3.22;;
51806;SDS011;37865;51.304;9.536;2023-06-04T11:18:19;3.50;;;2.45;;
51806;SDS011;37865;51.304;9.536;2023-06-04T11:20:47;4.22;;;2.75;;
51806;SDS011;37865;51.304;9.536;2023-06-04T11:23:15;3.08;;;2.38;;
51806;SDS011;37865;51.304;9.536;2023-06-04T11:25:43;3.15;;;2.30;;
51806;SDS011;37865;51.304;9.536;2023-06-04T11:28:16;6.65;;;2.67;;
51806;SDS011;37865;51.304;9.536;2023-06-04T11:30:42;6.85;;;2.33;;
51806;SDS011;37865;51.304;9.536;2023-06-04T11:33:08;4.15;;;2.60;;
51806;SDS011;37865;51.304;9.536;2023-06-04T11:35:40;5.10;;;2.47;;
51806;SDS011;37865;51.304;9.536;2023-06-04T11:38:07;7.68;;;2.35;;
51806;SDS011;37865;51.304;9.536;2023-06-04T11:40:33;2.65;;;2.28;;
51806;SDS011;37865;51.304;9.536;2023-06-04T11:42:58;3.28;;;2.55;;
51806;SDS011;37865;51.304;9.536;2023-06-04T11:45:24;3.35;;;2.22;;
51806;SDS011;37865;51.304;9.536;2023-06-04T11:47:54;5.78;;;2.03;;
51806;SDS011;37865;51.304;9.536;2023-06-04T11:50:26;2.13;;;1.80;;
51806;SDS011;37865;51.304;9.536;2023-06-04T11:52:52;2.42;;;2.20;;
51806;SDS011;37865;51.304;9.536;2023-06-04T11:55:18;3.33;;;2.28;;
51806;SDS011;37865;51.304;9.536;2023-06-04T11:57:47;10.00;;;5.05;;
51806;SDS011;37865;51.304;9.536;2023-06-04T12:00:14;3.25;;;2.63;;
51806;SDS011;37865;51.304;9.536;2023-06-04T12:02:50;69.72;;;61.72;;
51806;SDS011;37865;51.304;9.536;2023-06-04T12:05:21;121.05;;;97.07;;
51806;SDS011;37865;51.304;9.536;2023-06-04T12:07:50;30.13;;;26.35;;
51806;SDS011;37865;51.304;9.536;2023-06-04T12:10:16;63.80;;;57.72;;
51806;SDS011;37865;51.304;9.536;2023-06-04T12:12:45;43.25;;;37.67;;
51806;SDS011;37865;51.304;9.536;2023-06-04T12:15:11;3.00;;;2.53;;
51806;SDS011;37865;51.304;9.536;2023-06-04T12:17:50;5.50;;;1.75;;
51806;SDS011;37865;51.304;9.536;2023-06-04T12:20:30;2.45;;;2.25;;
51806;SDS011;37865;51.304;9.536;2023-06-04T12:22:57;2.97;;;1.63;;
51806;SDS011;37865;51.304;9.536;2023-06-04T12:25:23;2.45;;;2.25;;
51806;SDS011;37865;51.304;9.536;2023-06-04T12:27:51;3.75;;;1.92;;
51806;SDS011;37865;51.304;9.536;2023-06-04T12:30:16;1.73;;;1.63;;
51806;SDS011;37865;51.304;9.536;2023-06-04T12:32:42;4.20;;;3.67;;
51806;SDS011;37865;51.304;9.536;2023-06-04T12:35:08;2.63;;;2.10;;
51806;SDS011;37865;51.304;9.536;2023-06-04T12:37:34;3.55;;;2.30;;
51806;SDS011;37865;51.304;9.536;2023-06-04T12:39:59;6.25;;;2.10;;
51806;SDS011;37865;51.304;9.536;2023-06-04T12:42:25;4.88;;;1.60;;
51806;SDS011;37865;51.304;9.536;2023-06-04T12:44:50;2.10;;;1.90;;
51806;SDS011;37865;51.304;9.536;2023-06-04T12:47:15;2.60;;;1.63;;
51806;SDS011;37865;51.304;9.536;2023-06-04T12:49:42;4.10;;;1.95;;
51806;SDS011;37865;51.304;9.536;2023-06-04T12:52:07;5.10;;;1.80;;
51806;SDS011;37865;51.304;9.536;2023-06-04T12:54:33;6.03;;;1.95;;
51806;SDS011;37865;51.304;9.536;2023-06-04T12:56:58;3.03;;;2.05;;
51806;SDS011;37865;51.304;9.536;2023-06-04T12:59:24;7.18;;;3.45;;
51806;SDS011;37865;51.304;9.536;2023-06-04T13:01:51;7.68;;;2.03;;
51806;SDS011;37865;51.304;9.536;2023-06-04T13:04:17;5.28;;;2.33;;
51806;SDS011;37865;51.304;9.536;2023-06-04T13:06:42;1.92;;;1.58;;
51806;SDS011;37865;51.304;9.536;2023-06-04T13:09:08;2.30;;;1.63;;
51806;SDS011;37865;51.304;9.536;2023-06-04T13:11:41;3.25;;;1.70;;
51806;SDS011;37865;51.304;9.536;2023-06-04T13:14:08;2.92;;;1.48;;
51806;SDS011;37865;51.304;9.536;2023-06-04T13:16:34;3.35;;;2.97;;
51806;SDS011;37865;51.304;9.536;2023-06-04T13:19:00;2.65;;;1.92;;
51806;SDS011;37865;51.304;9.536;2023-06-04T13:21:26;3.33;;;2.67;;
51806;SDS011;37865;51.304;9.536;2023-06-04T13:23:52;2.20;;;1.90;;
51806;SDS011;37865;51.304;9.536;2023-06-04T13:26:17;4.43;;;2.22;;
51806;SDS011;37865;51.304;9.536;2023-06-04T13:28:43;3.28;;;1.15;;
51806;SDS011;37865;51.304;9.536;2023-06-04T13:31:09;2.53;;;1.40;;
51806;SDS011;37865;51.304;9.536;2023-06-04T13:33:34;1.83;;;1.70;;
51806;SDS011;37865;51.304;9.536;2023-06-04T13:36:01;5.55;;;2.33;;
51806;SDS011;37865;51.304;9.536;2023-06-04T13:38:27;2.38;;;1.90;;
51806;SDS011;37865;51.304;9.536;2023-06-04T13:40:52;1.85;;;1.65;;
51806;SDS011;37865;51.304;9.536;2023-06-04T13:43:18;1.88;;;1.17;;
51806;SDS011;37865;51.304;9.536;2023-06-04T13:45:43;2.28;;;2.05;;
51806;SDS011;37865;51.304;9.536;2023-06-04T13:48:10;2.55;;;1.95;;
51806;SDS011;37865;51.304;9.536;2023-06-04T13:50:36;14.00;;;1.42;;
51806;SDS011;37865;51.304;9.536;2023-06-04T13:53:01;1.77;;;1.58;;
51806;SDS011;37865;51.304;9.536;2023-06-04T13:55:27;1.42;;;1.25;;
51806;SDS011;37865;51.304;9.536;2023-06-04T13:57:52;3.78;;;3.17;;
51806;SDS011;37865;51.304;9.536;2023-06-04T14:00:17;4.03;;;2.22;;
51806;SDS011;37865;51.304;9.536;2023-06-04T14:02:43;3.72;;;2.13;;
51806;SDS011;37865;51.304;9.536;2023-06-04T14:05:08;2.40;;;1.77;;
51806;SDS011;37865;51.304;9.536;2023-06-04T14:07:34;2.05;;;1.30;;
51806;SDS011;37865;51.304;9.536;2023-06-04T14:09:59;6.75;;;1.73;;
51806;SDS011;37865;51.304;9.536;2023-06-04T14:12:25;3.75;;;2.30;;
51806;SDS011;37865;51.304;9.536;2023-06-04T14:14:50;6.00;;;1.75;;
51806;SDS011;37865;51.304;9.536;2023-06-04T14:17:16;2.35;;;1.77;;
51806;SDS011;37865;51.304;9.536;2023-06-04T14:19:41;2.13;;;1.60;;
51806;SDS011;37865;51.304;9.536;2023-06-04T14:22:07;6.53;;;1.50;;
51806;SDS011;37865;51.304;9.536;2023-06-04T14:24:32;1.60;;;1.50;;
51806;SDS011;37865;51.304;9.536;2023-06-04T14:26:58;4.50;;;1.65;;
51806;SDS011;37865;51.304;9.536;2023-06-04T14:29:24;4.70;;;1.55;;
51806;SDS011;37865;51.304;9.536;2023-06-04T14:31:49;6.20;;;1.98;;
51806;SDS011;37865;51.304;9.536;2023-06-04T14:34:14;1.35;;;1.27;;
51806;SDS011;37865;51.304;9.536;2023-06-04T14:36:41;3.35;;;3.05;;
51806;SDS011;37865;51.304;9.536;2023-06-04T14:39:07;4.18;;;2.00;;
51806;SDS011;37865;51.304;9.536;2023-06-04T14:41:33;2.58;;;1.88;;
51806;SDS011;37865;51.304;9.536;2023-06-04T14:43:58;2.42;;;2.08;;
51806;SDS011;37865;51.304;9.536;2023-06-04T14:46:24;1.73;;;1.45;;
51806;SDS011;37865;51.304;9.536;2023-06-04T14:48:50;5.07;;;1.77;;
51806;SDS011;37865;51.304;9.536;2023-06-04T14:51:15;6.10;;;2.55;;
51806;SDS011;37865;51.304;9.536;2023-06-04T14:53:41;3.55;;;1.85;;